Time;durP1;ratioP1;P1;durP2;ratioP2;P2;SDS_P1;SDS_P2;PMS_P1;PMS_P2;Temp;Humidity;BMP_temperature;BMP_pressure;BME280_temperature;BME280_humidity;BME280_pressure;Samples;Min_cycle;Max_cycle;Signal;HPM_P1;HPM_P2
2023/02/13 00:00:36;;;;;;;22.25;14.52;;;7.10;99.90;;;;;;6160890;23;20059;-74
2023/02/13 00:03:03;;;;;;;23.00;14.55;;;7.10;99.90;;;;;;6187503;23;20016;-74
2023/02/13 00:05:28;;;;;;;23.25;13.80;;;7.00;99.90;;;;;;6187554;23;20054;-74
2023/02/13 00:07:54;;;;;;;24.52;15.13;;;7.20;99.90;;;;;;6187495;23;20040;-74
2023/02/13 00:10:20;;;;;;;23.50;14.23;;;7.00;99.90;;;;;;6185971;23;20005;-73
2023/02/13 00:12:45;;;;;;;25.60;16.20;;;7.10;99.90;;;;;;6185703;23;20036;-73
2023/02/13 00:15:11;;;;;;;22.40;14.40;;;7.10;99.90;;;;;;6185486;23;20009;-74
2023/02/13 00:17:37;;;;;;;24.30;15.07;;;7.20;99.90;;;;;;6185462;23;20013;-74
2023/02/13 00:20:03;;;;;;;24.83;15.75;;;7.10;99.90;;;;;;6185407;23;20009;-74
2023/02/13 00:22:29;;;;;;;22.60;15.55;;;7.10;99.90;;;;;;6186978;23;20013;-73
2023/02/13 00:24:54;;;;;;;23.92;14.82;;;7.10;99.90;;;;;;6185742;23;20020;-74
2023/02/13 00:27:20;;;;;;;22.88;14.45;;;7.00;99.90;;;;;;6187378;23;20059;-75
2023/02/13 00:29:46;;;;;;;22.88;14.35;;;7.00;99.90;;;;;;6184833;23;20028;-74
2023/02/13 00:32:12;;;;;;;23.80;14.05;;;7.10;99.90;;;;;;6160617;23;20020;-74
2023/02/13 00:34:38;;;;;;;21.67;13.48;;;7.00;99.90;;;;;;6160902;23;20067;-74
2023/02/13 00:37:04;;;;;;;22.88;14.85;;;7.00;99.90;;;;;;6186824;23;20044;-74
2023/02/13 00:39:29;;;;;;;21.17;14.38;;;7.00;99.90;;;;;;6185412;23;20065;-74
2023/02/13 00:41:55;;;;;;;21.75;15.00;;;7.10;99.90;;;;;;6187369;23;20029;-74
2023/02/13 00:44:20;;;;;;;24.67;15.55;;;7.00;99.90;;;;;;6185310;23;20016;-73
2023/02/13 00:46:46;;;;;;;25.10;14.27;;;7.10;99.90;;;;;;6187044;23;20079;-74
2023/02/13 00:49:12;;;;;;;23.00;14.57;;;7.00;99.90;;;;;;6186955;23;20084;-73
2023/02/13 00:51:37;;;;;;;25.52;14.98;;;7.00;99.90;;;;;;6185176;23;20013;-73
2023/02/13 00:54:03;;;;;;;25.98;16.75;;;7.00;99.90;;;;;;6187060;23;20030;-74
2023/02/13 00:56:29;;;;;;;25.35;15.60;;;7.00;99.90;;;;;;6187163;23;20465;-73
2023/02/13 00:58:54;;;;;;;25.48;16.30;;;7.00;99.90;;;;;;6187080;23;20464;-74
2023/02/13 01:01:20;;;;;;;24.20;15.93;;;7.00;99.90;;;;;;6160488;23;20025;-74
2023/02/13 01:03:46;;;;;;;24.27;15.57;;;7.10;99.90;;;;;;6160421;23;20382;-74
2023/02/13 01:06:11;;;;;;;23.33;15.75;;;7.00;99.90;;;;;;6185142;23;20512;-74
2023/02/13 01:08:40;;;;;;;22.05;14.93;;;7.10;99.90;;;;;;6185031;23;20024;-74
2023/02/13 01:11:06;;;;;;;24.98;17.10;;;7.10;99.90;;;;;;6160168;23;20074;-74
2023/02/13 01:13:32;;;;;;;28.58;17.48;;;7.10;99.90;;;;;;6187090;23;20016;-74
2023/02/13 01:15:58;;;;;;;25.23;16.75;;;7.20;99.90;;;;;;6186800;23;20009;-74
2023/02/13 01:18:24;;;;;;;27.38;15.77;;;7.10;99.90;;;;;;6186896;23;20013;-74
2023/02/13 01:20:59;;;;;;;25.13;15.88;;;7.20;99.90;;;;;;6186908;23;20060;-74
2023/02/13 01:23:24;;;;;;;24.23;14.30;;;7.00;99.90;;;;;;6160106;23;20040;-73
2023/02/13 01:25:50;;;;;;;24.35;15.73;;;7.00;99.90;;;;;;6186821;23;20013;-74
2023/02/13 01:28:16;;;;;;;24.70;16.38;;;7.10;99.90;;;;;;6160046;23;20458;-74
2023/02/13 01:30:42;;;;;;;23.05;14.57;;;7.10;99.90;;;;;;6186151;23;20435;-73
2023/02/13 01:33:10;;;;;;;23.88;15.05;;;7.00;99.90;;;;;;6185153;23;20029;-74
2023/02/13 01:35:39;;;;;;;23.00;15.23;;;7.00;99.90;;;;;;6186608;23;20016;-73
2023/02/13 01:38:04;;;;;;;27.67;16.58;;;7.10;99.90;;;;;;6186638;23;20082;-74
2023/02/13 01:40:30;;;;;;;24.85;15.18;;;7.10;99.90;;;;;;6186195;23;20446;-74
2023/02/13 01:42:56;;;;;;;26.73;15.45;;;7.10;99.90;;;;;;6186671;23;20024;-74
2023/02/13 01:45:29;;;;;;;27.65;17.30;;;7.00;99.90;;;;;;6186495;23;20017;-74
2023/02/13 01:48:00;;;;;;;24.85;16.42;;;7.10;99.90;;;;;;6184754;23;20017;-74
2023/02/13 01:50:32;;;;;;;23.75;16.10;;;7.00;99.90;;;;;;6186450;23;20434;-73
2023/02/13 01:53:31;;;;;;;25.85;15.65;;;7.10;99.90;;;;;;6185084;23;20084;-74
2023/02/13 01:56:09;;;;;;;26.10;15.70;;;7.20;99.90;;;;;;6180155;23;20017;-74
2023/02/13 01:58:38;;;;;;;22.35;15.35;;;7.10;99.90;;;;;;6184815;23;20017;-74
2023/02/13 02:01:07;;;;;;;24.55;15.77;;;7.20;99.90;;;;;;6159825;23;20016;-74
2023/02/13 02:03:58;;;;;;;26.08;16.50;;;7.10;99.90;;;;;;6186442;23;20044;-74
2023/02/13 02:06:31;;;;;;;24.67;15.73;;;7.20;99.90;;;;;;6186607;23;20064;-74
2023/02/13 02:09:02;;;;;;;26.90;16.42;;;7.10;99.90;;;;;;6186491;23;20017;-74
2023/02/13 02:11:55;;;;;;;23.33;15.98;;;7.00;99.90;;;;;;6186767;23;20020;-74
2023/02/13 02:14:21;;;;;;;27.23;16.48;;;7.10;99.90;;;;;;6168866;23;20135;-74
2023/02/13 02:16:46;;;;;;;24.58;15.13;;;7.10;99.90;;;;;;6184587;23;20020;-74
2023/02/13 02:19:40;;;;;;;27.10;15.77;;;7.10;99.90;;;;;;6160092;23;20017;-73
2023/02/13 02:22:29;;;;;;;25.65;16.45;;;7.20;99.90;;;;;;6184749;23;20048;-73
2023/02/13 02:25:19;;;;;;;26.45;16.15;;;7.10;99.90;;;;;;6160932;23;20502;-74
2023/02/13 02:28:09;;;;;;;27.13;17.40;;;7.30;99.90;;;;;;6186534;23;20324;-74
2023/02/13 02:30:59;;;;;;;24.83;16.35;;;7.20;99.90;;;;;;6187787;23;20347;-74
2023/02/13 02:33:32;;;;;;;23.15;15.73;;;7.20;99.90;;;;;;6186912;23;20012;-74
2023/02/13 02:36:35;;;;;;;27.58;17.38;;;7.20;99.90;;;;;;6188161;23;20338;-74
2023/02/13 02:39:26;;;;;;;24.52;15.90;;;7.20;99.90;;;;;;6186408;23;20021;-74
2023/02/13 02:42:00;;;;;;;33.33;17.38;;;7.10;99.90;;;;;;6186910;23;20024;-73
2023/02/13 02:45:01;;;;;;;26.77;17.30;;;7.00;99.90;;;;;;6187941;23;20430;-73
2023/02/13 02:50:53;;;;;;;26.38;16.50;;;7.00;99.90;;;;;;6068159;23;20066;-74
2023/02/13 02:53:50;;;;;;;25.20;15.23;;;7.00;99.90;;;;;;6046188;23;20015;-74
2023/02/13 02:56:41;;;;;;;26.60;17.30;;;7.20;99.90;;;;;;6068257;23;20080;-74
2023/02/13 03:07:31;;;;;;;25.57;15.63;;;7.20;99.90;;;;;;6067838;23;20018;-74
2023/02/13 03:13:20;;;;;;;25.10;16.80;;;7.10;99.90;;;;;;6043846;23;20050;-74
2023/02/13 03:24:41;;;;;;;27.98;16.48;;;7.30;99.90;;;;;;6185964;23;20100;-74
2023/02/13 03:30:21;;;;;;;27.17;16.20;;;7.10;99.90;;;;;;6140284;23;20335;-75
2023/02/13 03:32:55;;;;;;;27.88;17.15;;;7.10;99.90;;;;;;6185988;23;20049;-75
2023/02/13 03:38:24;;;;;;;25.92;16.70;;;7.10;99.90;;;;;;6187516;23;20017;-75
2023/02/13 03:44:21;;;;;;;21.92;15.00;;;7.00;99.90;;;;;;6187962;23;20021;-74
2023/02/13 03:46:50;;;;;;;32.42;18.38;;;7.10;99.90;;;;;;6186130;23;20009;-74
2023/02/13 03:52:14;;;;;;;29.38;17.17;;;7.10;99.90;;;;;;6185680;23;20354;-74
2023/02/13 04:00:35;;;;;;;24.30;15.48;;;7.10;99.90;;;;;;6187612;23;20048;-75
2023/02/13 04:03:03;;;;;;;27.42;16.67;;;6.90;99.90;;;;;;6187513;23;20080;-75
2023/02/13 04:05:35;;;;;;;26.40;16.20;;;7.10;99.90;;;;;;6187416;23;20017;-75
2023/02/13 04:08:01;;;;;;;25.70;16.60;;;7.10;99.90;;;;;;6185657;23;20084;-75
2023/02/13 04:10:31;;;;;;;28.17;17.35;;;7.10;99.90;;;;;;6185871;23;20048;-75
2023/02/13 04:13:14;;;;;;;25.88;16.70;;;7.00;99.90;;;;;;6185689;23;20020;-75
2023/02/13 04:15:54;;;;;;;29.77;18.77;;;7.00;99.90;;;;;;6187464;23;20047;-75
2023/02/13 04:18:27;;;;;;;27.23;17.35;;;7.10;99.90;;;;;;6185595;23;20020;-75
2023/02/13 04:20:52;;;;;;;26.20;17.45;;;7.10;99.90;;;;;;6187522;23;20009;-75
2023/02/13 04:23:18;;;;;;;26.92;16.67;;;7.10;99.90;;;;;;6187416;23;20379;-75
2023/02/13 04:25:49;;;;;;;26.25;16.77;;;7.00;99.90;;;;;;6185499;23;20009;-75
2023/02/13 04:28:15;;;;;;;27.50;17.33;;;7.10;99.90;;;;;;6185370;23;20013;-75
2023/02/13 04:30:43;;;;;;;27.98;17.67;;;7.10;99.90;;;;;;6185172;23;20017;-75
2023/02/13 04:33:09;;;;;;;27.08;16.13;;;7.00;99.90;;;;;;6187223;23;20021;-75
2023/02/13 04:35:34;;;;;;;26.95;17.50;;;6.90;99.90;;;;;;6185308;23;20019;-75
2023/02/13 04:38:00;;;;;;;23.83;16.05;;;7.00;99.90;;;;;;6187162;23;20012;-75
2023/02/13 04:40:26;;;;;;;24.20;15.82;;;7.00;99.90;;;;;;6160555;23;20016;-75
2023/02/13 04:42:52;;;;;;;23.35;15.63;;;7.00;99.90;;;;;;6185396;23;20012;-75
2023/02/13 04:45:17;;;;;;;26.52;16.17;;;7.00;99.90;;;;;;6186971;23;20059;-75
2023/02/13 04:47:50;;;;;;;22.27;14.35;;;6.90;99.90;;;;;;6184813;23;20339;-74
2023/02/13 04:50:15;;;;;;;28.23;16.60;;;6.80;99.90;;;;;;6185030;23;20091;-75
2023/02/13 04:52:41;;;;;;;27.63;17.27;;;6.80;99.90;;;;;;6185157;23;20009;-75
2023/02/13 04:55:07;;;;;;;28.23;16.75;;;6.90;99.90;;;;;;6185092;23;20020;-75
2023/02/13 04:57:32;;;;;;;25.83;15.98;;;6.80;99.90;;;;;;6185302;23;20013;-75
2023/02/13 04:59:58;;;;;;;23.85;15.50;;;6.80;99.90;;;;;;6186991;23;20013;-75
2023/02/13 05:02:24;;;;;;;27.25;16.35;;;6.70;99.90;;;;;;6184927;23;20433;-75
2023/02/13 05:04:49;;;;;;;24.83;15.57;;;6.70;99.90;;;;;;6185459;23;20028;-75
2023/02/13 05:07:15;;;;;;;27.70;16.60;;;6.80;99.90;;;;;;6186977;23;20055;-75
2023/02/13 05:09:41;;;;;;;24.50;15.75;;;6.80;99.90;;;;;;6160243;23;20059;-75
2023/02/13 05:12:06;;;;;;;27.45;16.48;;;6.80;99.90;;;;;;6185136;23;20017;-75
2023/02/13 05:14:32;;;;;;;25.92;15.88;;;6.90;99.90;;;;;;6185018;23;20378;-75
2023/02/13 05:16:58;;;;;;;22.73;15.73;;;6.70;99.90;;;;;;6186846;23;20431;-75
2023/02/13 05:19:23;;;;;;;24.27;15.35;;;6.90;99.90;;;;;;6184910;23;20458;-74
2023/02/13 05:24:33;;;;;;;25.33;16.30;;;6.70;99.90;;;;;;6184859;23;20066;-74
2023/02/13 05:26:58;;;;;;;23.45;14.45;;;6.70;99.90;;;;;;6184963;23;20060;-75
2023/02/13 05:29:25;;;;;;;28.10;16.08;;;6.60;99.90;;;;;;6159714;23;20028;-74
2023/02/13 05:31:53;;;;;;;26.48;15.77;;;6.60;99.90;;;;;;6186243;23;20421;-72
2023/02/13 05:34:23;;;;;;;29.27;17.10;;;6.70;99.90;;;;;;6186707;23;20307;-73
2023/02/13 05:36:49;;;;;;;23.95;15.48;;;6.60;99.90;;;;;;6184811;23;20013;-72
2023/02/13 05:39:15;;;;;;;26.95;16.25;;;6.70;99.90;;;;;;6186253;23;20025;-72
2023/02/13 05:41:43;;;;;;;26.52;15.45;;;6.60;99.90;;;;;;6184798;23;20132;-72
2023/02/13 05:44:09;;;;;;;25.20;15.57;;;6.60;99.90;;;;;;6184862;23;20023;-72
2023/02/13 05:46:37;;;;;;;27.52;16.17;;;6.60;99.90;;;;;;6186637;23;20013;-72
2023/02/13 05:49:03;;;;;;;27.77;16.55;;;6.60;99.90;;;;;;6186448;23;20032;-73
2023/02/13 05:51:29;;;;;;;27.00;16.10;;;6.80;99.90;;;;;;6184661;23;20380;-70
2023/02/13 05:53:55;;;;;;;25.73;15.90;;;6.60;99.90;;;;;;6184685;23;20017;-71
2023/02/13 05:56:20;;;;;;;29.27;16.33;;;6.80;99.90;;;;;;6186656;23;20020;-71
2023/02/13 05:58:46;;;;;;;27.05;16.92;;;6.60;99.90;;;;;;6184538;23;20055;-72
2023/02/13 06:01:11;;;;;;;28.42;16.75;;;6.70;99.90;;;;;;6184604;23;20382;-73
2023/02/13 06:03:39;;;;;;;26.38;16.17;;;6.70;99.90;;;;;;6186360;23;20013;-77
2023/02/13 06:06:05;;;;;;;25.92;15.70;;;6.70;99.90;;;;;;6184606;23;20013;-77
2023/02/13 06:08:31;;;;;;;28.58;16.60;;;6.80;99.90;;;;;;6184345;23;20150;-81
2023/02/13 06:10:56;;;;;;;28.52;16.88;;;6.60;99.90;;;;;;6186212;23;20040;-71
2023/02/13 06:13:22;;;;;;;25.73;16.27;;;6.70;99.90;;;;;;6159842;23;20374;-72
2023/02/13 06:15:49;;;;;;;24.67;15.10;;;6.70;99.90;;;;;;6186113;23;20071;-72
2023/02/13 06:18:15;;;;;;;21.35;14.63;;;6.70;99.90;;;;;;6187144;23;20009;-72
2023/02/13 06:20:41;;;;;;;24.20;15.38;;;6.60;99.90;;;;;;6186142;23;20052;-72
2023/02/13 06:23:07;;;;;;;23.95;15.23;;;6.60;99.90;;;;;;6184575;23;20027;-72
2023/02/13 06:25:35;;;;;;;24.85;15.52;;;6.70;99.90;;;;;;6186054;23;20125;-72
2023/02/13 06:28:01;;;;;;;25.20;16.13;;;6.70;99.90;;;;;;6186469;23;20378;-72
2023/02/13 06:30:27;;;;;;;29.65;18.75;;;6.70;99.90;;;;;;6184121;23;20025;-72
2023/02/13 06:32:52;;;;;;;34.58;19.02;;;6.80;99.90;;;;;;6184476;23;20044;-72
2023/02/13 06:35:18;;;;;;;26.27;16.95;;;6.70;99.90;;;;;;6184496;23;20013;-72
2023/02/13 06:37:44;;;;;;;29.50;18.42;;;6.60;99.90;;;;;;6186160;23;20057;-72
2023/02/13 06:40:11;;;;;;;32.53;18.60;;;6.60;99.90;;;;;;6186387;23;20067;-72
2023/02/13 06:42:37;;;;;;;24.13;16.13;;;6.60;99.90;;;;;;6184789;23;20020;-72
2023/02/13 06:45:03;;;;;;;28.25;17.67;;;6.70;99.90;;;;;;6185960;23;20020;-72
2023/02/13 06:47:29;;;;;;;29.00;18.98;;;6.80;99.90;;;;;;6186373;23;20013;-72
2023/02/13 06:49:54;;;;;;;37.08;19.25;;;6.80;99.90;;;;;;6186212;23;20457;-72
2023/02/13 06:52:20;;;;;;;29.33;18.52;;;6.70;99.90;;;;;;6184450;23;20458;-72
2023/02/13 06:54:45;;;;;;;28.65;17.42;;;6.80;99.90;;;;;;6184825;23;20005;-72
2023/02/13 06:57:11;;;;;;;27.20;16.92;;;6.90;99.90;;;;;;6184677;23;20085;-72
2023/02/13 06:59:37;;;;;;;27.58;17.05;;;6.70;99.90;;;;;;6159785;23;20067;-72
2023/02/13 07:02:02;;;;;;;29.52;17.23;;;6.80;99.90;;;;;;6184419;23;20023;-72
2023/02/13 07:04:28;;;;;;;30.38;18.30;;;6.80;99.90;;;;;;6184398;23;20362;-72
2023/02/13 07:06:57;;;;;;;27.05;16.63;;;6.70;99.90;;;;;;6184371;23;20072;-72
2023/02/13 07:09:23;;;;;;;26.17;16.55;;;6.70;99.90;;;;;;6159437;23;20092;-72
2023/02/13 07:11:49;;;;;;;25.55;16.25;;;6.60;99.90;;;;;;6186174;23;20338;-72
2023/02/13 07:14:15;;;;;;;26.27;15.80;;;6.60;99.90;;;;;;6187692;23;20013;-72
2023/02/13 07:16:40;;;;;;;26.92;17.70;;;6.60;99.90;;;;;;6187555;23;20387;-72
2023/02/13 07:19:06;;;;;;;26.15;17.90;;;6.60;99.90;;;;;;6161237;23;20021;-72
2023/02/13 07:21:32;;;;;;;26.02;17.35;;;6.70;99.90;;;;;;6186051;23;20021;-72
2023/02/13 07:23:57;;;;;;;27.63;17.45;;;6.70;99.90;;;;;;6187948;23;20087;-72
2023/02/13 07:26:25;;;;;;;29.90;18.48;;;6.80;99.90;;;;;;6187819;23;20048;-72
2023/02/13 07:28:51;;;;;;;26.25;18.58;;;6.80;99.90;;;;;;6187699;23;20059;-73
2023/02/13 07:31:17;;;;;;;32.50;22.20;;;6.70;99.90;;;;;;6186067;23;20083;-72
2023/02/13 07:33:42;;;;;;;31.27;19.63;;;6.80;99.90;;;;;;6186044;23;20017;-72
2023/02/13 07:36:08;;;;;;;41.03;27.70;;;6.80;99.90;;;;;;6187738;23;20331;-72
2023/02/13 07:38:34;;;;;;;48.25;34.63;;;6.80;99.90;;;;;;6186351;23;20024;-72
2023/02/13 07:41:01;;;;;;;43.03;28.85;;;6.80;99.90;;;;;;6186020;23;20017;-73
2023/02/13 07:43:28;;;;;;;36.60;23.80;;;6.70;99.90;;;;;;6186193;23;20092;-72
2023/02/13 07:45:57;;;;;;;30.70;19.95;;;6.90;99.90;;;;;;6186025;23;20088;-72
2023/02/13 07:48:23;;;;;;;28.48;17.67;;;6.90;99.90;;;;;;6161130;23;20013;-72
2023/02/13 07:50:49;;;;;;;29.27;16.20;;;6.80;99.90;;;;;;6188542;23;20005;-72
2023/02/13 07:53:15;;;;;;;32.03;17.42;;;6.70;99.90;;;;;;6187851;23;20016;-72
2023/02/13 07:55:41;;;;;;;29.40;17.85;;;6.80;99.90;;;;;;6185870;23;20021;-72
2023/02/13 07:58:07;;;;;;;35.10;19.20;;;6.80;99.90;;;;;;6185745;23;20076;-72
2023/02/13 08:00:32;;;;;;;30.70;19.05;;;6.80;99.90;;;;;;6185809;23;20394;-72
2023/02/13 08:02:59;;;;;;;33.53;20.27;;;6.90;99.90;;;;;;6185838;23;20016;-72
2023/02/13 08:05:25;;;;;;;28.83;18.35;;;6.90;99.90;;;;;;6187521;23;20044;-72
2023/02/13 08:07:51;;;;;;;29.27;17.92;;;6.90;99.90;;;;;;6185820;23;20021;-72
2023/02/13 08:13:01;;;;;;;26.15;16.27;;;6.90;99.90;;;;;;6185646;23;20032;-72
2023/02/13 08:15:27;;;;;;;28.80;17.65;;;7.10;99.90;;;;;;6160535;23;20017;-72
2023/02/13 08:17:53;;;;;;;33.15;17.52;;;6.90;99.90;;;;;;6187442;23;20013;-72
2023/02/13 08:20:18;;;;;;;30.67;17.83;;;7.10;99.90;;;;;;6160742;23;20013;-72
2023/02/13 08:22:44;;;;;;;30.70;16.77;;;6.90;99.90;;;;;;6185451;23;20013;-72
2023/02/13 08:25:10;;;;;;;31.23;19.35;;;7.10;99.90;;;;;;6185487;23;20017;-72
2023/02/13 08:27:35;;;;;;;57.47;39.97;;;7.00;99.90;;;;;;6187470;23;20052;-72
2023/02/13 08:30:02;;;;;;;54.78;37.63;;;7.10;99.90;;;;;;6185091;23;20017;-72
2023/02/13 08:32:27;;;;;;;34.25;20.83;;;7.20;99.90;;;;;;6185425;23;20019;-72
2023/02/13 08:34:53;;;;;;;32.42;19.15;;;7.20;99.90;;;;;;6185487;23;20341;-72
2023/02/13 08:37:19;;;;;;;160.05;77.32;;;7.20;99.90;;;;;;6185470;23;20005;-72
2023/02/13 08:39:44;;;;;;;127.97;61.75;;;7.20;99.90;;;;;;6187257;23;20017;-72
2023/02/13 08:42:10;;;;;;;42.88;22.15;;;7.30;99.90;;;;;;6185473;23;20013;-72
2023/02/13 08:44:39;;;;;;;32.22;19.38;;;7.20;99.90;;;;;;6185497;23;20021;-72
2023/02/13 08:47:05;;;;;;;33.67;19.42;;;7.20;99.90;;;;;;6160575;23;20017;-72
2023/02/13 08:49:32;;;;;;;31.63;19.02;;;7.20;99.90;;;;;;6185216;23;20047;-72
2023/02/13 08:51:58;;;;;;;34.63;19.90;;;7.20;99.90;;;;;;6185308;23;20017;-72
2023/02/13 08:54:24;;;;;;;34.40;20.27;;;7.40;99.90;;;;;;6185272;23;20020;-72
2023/02/13 08:56:50;;;;;;;39.13;20.83;;;7.30;99.90;;;;;;6185320;23;20017;-72
2023/02/13 08:59:16;;;;;;;33.33;18.77;;;7.40;99.90;;;;;;6185416;23;20013;-72
2023/02/13 09:01:42;;;;;;;34.92;19.23;;;7.40;99.90;;;;;;6185340;23;20013;-72
2023/02/13 09:04:07;;;;;;;34.20;19.42;;;7.50;99.90;;;;;;6186964;23;20068;-72
2023/02/13 09:06:33;;;;;;;33.20;19.15;;;7.40;99.90;;;;;;6187028;23;20366;-72
2023/02/13 09:08:59;;;;;;;33.78;20.35;;;7.40;99.90;;;;;;6186831;23;20426;-72
2023/02/13 09:11:24;;;;;;;34.72;19.90;;;7.60;99.90;;;;;;6185165;23;20438;-72
2023/02/13 09:13:54;;;;;;;35.45;20.27;;;7.60;99.90;;;;;;6186743;23;20009;-72
2023/02/13 09:16:20;;;;;;;35.10;20.13;;;7.50;99.90;;;;;;6185077;23;20369;-72
2023/02/13 09:18:49;;;;;;;34.70;20.30;;;7.50;99.90;;;;;;6186767;23;20016;-72
2023/02/13 09:21:16;;;;;;;36.97;21.05;;;7.60;99.90;;;;;;6186873;23;20013;-72
2023/02/13 09:23:42;;;;;;;41.20;21.92;;;7.50;99.90;;;;;;6185356;23;20040;-72
2023/02/13 09:26:10;;;;;;;39.80;23.38;;;7.60;99.90;;;;;;6186558;23;20024;-72
2023/02/13 09:28:37;;;;;;;35.35;22.40;;;7.50;99.90;;;;;;6184758;23;20013;-72
2023/02/13 09:31:17;;;;;;;33.83;20.73;;;7.70;99.90;;;;;;6186680;23;20021;-72
2023/02/13 09:33:44;;;;;;;39.22;24.08;;;7.60;99.90;;;;;;6186523;23;20009;-72
2023/02/13 09:36:17;;;;;;;33.75;19.73;;;7.70;99.90;;;;;;6186574;23;20076;-72
2023/02/13 09:38:43;;;;;;;35.63;20.85;;;7.70;99.90;;;;;;6184955;23;20334;-72
2023/02/13 09:41:19;;;;;;;36.45;21.77;;;7.70;99.90;;;;;;6160093;23;20041;-72
2023/02/13 09:43:52;;;;;;;36.20;21.05;;;7.70;99.90;;;;;;6186999;23;20009;-72
2023/02/13 09:46:32;;;;;;;38.00;21.63;;;7.70;99.90;;;;;;6184864;23;20445;-73
2023/02/13 09:49:01;;;;;;;39.05;24.65;;;7.70;99.90;;;;;;6186567;23;20108;-72
2023/02/13 09:51:28;;;;;;;41.13;23.85;;;7.70;99.90;;;;;;6186545;23;20013;-72
2023/02/13 09:54:04;;;;;;;35.92;22.10;;;7.70;99.90;;;;;;6159951;23;20017;-72
2023/02/13 09:56:53;;;;;;;39.28;22.77;;;7.70;99.90;;;;;;6186331;23;20013;-72
2023/02/13 09:59:37;;;;;;;37.53;23.40;;;7.70;99.90;;;;;;6184572;23;20013;-72
2023/02/13 10:02:41;;;;;;;34.42;23.23;;;7.80;99.90;;;;;;6184093;23;20017;-72
2023/02/13 10:05:34;;;;;;;35.17;23.75;;;7.90;99.90;;;;;;6168430;23;20088;-73
2023/02/13 10:08:03;;;;;;;35.13;23.88;;;7.80;99.90;;;;;;6186172;23;20048;-72
2023/02/13 10:10:50;;;;;;;35.58;22.25;;;7.90;99.90;;;;;;6184939;23;20334;-72
2023/02/13 10:13:16;;;;;;;32.90;20.25;;;8.00;99.90;;;;;;6186202;23;20013;-72
2023/02/13 10:16:15;;;;;;;38.55;21.15;;;7.90;99.90;;;;;;6159785;23;20020;-72
2023/02/13 10:18:53;;;;;;;35.65;21.52;;;8.10;99.90;;;;;;6186024;23;20009;-72
2023/02/13 10:21:27;;;;;;;33.53;21.05;;;8.00;99.90;;;;;;6186480;23;20071;-72
2023/02/13 10:24:05;;;;;;;35.10;20.30;;;8.10;99.90;;;;;;6184713;23;20020;-72
2023/02/13 10:26:41;;;;;;;34.75;20.92;;;8.10;99.90;;;;;;6184561;23;20036;-72
2023/02/13 10:32:10;;;;;;;32.33;19.77;;;8.20;99.90;;;;;;6184529;23;20367;-72
2023/02/13 10:34:44;;;;;;;37.80;22.38;;;8.30;99.90;;;;;;6159675;23;20331;-72
2023/02/13 10:37:19;;;;;;;37.95;22.55;;;8.30;99.90;;;;;;6186374;23;20433;-72
2023/02/13 10:39:48;;;;;;;35.63;22.17;;;8.20;99.90;;;;;;6186371;23;20019;-72
2023/02/13 10:42:39;;;;;;;34.92;20.73;;;8.20;99.90;;;;;;6186256;23;20335;-72
2023/02/13 10:45:05;;;;;;;31.38;19.92;;;8.30;99.90;;;;;;6185114;23;20031;-72
2023/02/13 10:47:57;;;;;;;34.00;19.85;;;8.30;99.90;;;;;;6186452;23;20109;-72
2023/02/13 10:50:33;;;;;;;31.38;19.80;;;8.40;99.90;;;;;;6179483;23;20071;-72
2023/02/13 10:53:14;;;;;;;28.40;18.80;;;8.40;99.90;;;;;;6186426;23;20040;-72
2023/02/13 10:55:39;;;;;;;;;;;8.50;99.90;;;;;;6186859;23;20009;-72
2023/02/13 10:58:23;;;;;;;31.20;19.50;;;8.40;99.90;;;;;;6186437;23;20301;-72
2023/02/13 11:01:15;;;;;;;30.95;19.02;;;8.40;99.90;;;;;;6188227;23;20017;-72
2023/02/13 11:03:41;;;;;;;29.58;18.88;;;8.50;99.90;;;;;;6154427;23;20084;-72
2023/02/13 11:06:11;;;;;;;31.52;19.65;;;8.50;99.90;;;;;;6188324;23;20433;-72
2023/02/13 11:08:44;;;;;;;27.83;18.20;;;8.60;99.90;;;;;;6187772;23;20021;-72
2023/02/13 11:11:34;;;;;;;34.55;19.55;;;8.60;99.90;;;;;;6187975;23;20012;-72
2023/02/13 11:14:11;;;;;;;30.53;18.77;;;8.60;99.90;;;;;;6188128;23;20098;-72
2023/02/13 11:16:45;;;;;;;33.30;19.70;;;8.60;99.90;;;;;;6187911;23;20231;-72
2023/02/13 11:19:18;;;;;;;32.40;19.60;;;8.70;99.90;;;;;;6186411;23;20017;-72
2023/02/13 11:21:45;;;;;;;29.58;18.45;;;8.80;99.90;;;;;;6186189;23;20016;-72
2023/02/13 11:24:21;;;;;;;30.10;18.90;;;8.80;99.90;;;;;;6187911;23;20009;-72
2023/02/13 11:26:52;;;;;;;32.42;18.83;;;8.70;99.90;;;;;;6185854;23;20048;-72
2023/02/13 11:29:29;;;;;;;27.88;18.88;;;8.70;99.90;;;;;;6187646;23;20021;-72
2023/02/13 11:32:20;;;;;;;33.33;20.27;;;8.80;99.90;;;;;;6187543;23;20473;-72
2023/02/13 11:34:46;;;;;;;30.52;18.45;;;8.80;99.90;;;;;;6171409;23;20013;-72
2023/02/13 11:37:12;;;;;;;32.92;19.70;;;8.80;99.90;;;;;;6185977;23;20501;-72
2023/02/13 11:39:42;;;;;;;31.98;20.30;;;8.90;99.90;;;;;;6187756;23;20009;-72
2023/02/13 11:42:15;;;;;;;36.15;21.05;;;8.90;99.90;;;;;;6187457;23;20431;-72
2023/02/13 11:44:43;;;;;;;36.28;21.55;;;9.00;99.90;;;;;;6187804;23;20013;-72
2023/02/13 11:47:09;;;;;;;35.53;22.50;;;9.00;99.90;;;;;;6187288;23;20084;-72
2023/02/13 11:49:43;;;;;;;35.33;20.00;;;9.10;99.90;;;;;;6187598;23;20056;-72
2023/02/13 11:52:30;;;;;;;32.03;20.98;;;9.10;99.90;;;;;;6187337;23;20020;-72
2023/02/13 11:55:02;;;;;;;35.80;22.00;;;9.10;99.90;;;;;;6187691;23;20020;-72
2023/02/13 11:57:33;;;;;;;37.40;24.02;;;9.20;99.90;;;;;;6185572;23;20013;-72
2023/02/13 12:00:19;;;;;;;34.47;21.65;;;9.20;99.90;;;;;;6185904;23;20095;-72
2023/02/13 12:02:50;;;;;;;40.05;23.27;;;9.20;99.90;;;;;;6185674;23;20027;-73
2023/02/13 12:05:22;;;;;;;38.75;23.27;;;9.20;99.90;;;;;;6187258;23;20080;-72
2023/02/13 12:07:48;;;;;;;33.78;21.25;;;9.30;99.90;;;;;;6187413;23;20005;-72
2023/02/13 12:10:13;;;;;;;35.22;22.42;;;9.30;99.90;;;;;;6187023;23;20069;-72
2023/02/13 12:12:52;;;;;;;34.95;23.13;;;9.40;99.90;;;;;;6185635;23;20013;-72
2023/02/13 12:15:25;;;;;;;35.92;23.25;;;9.40;99.90;;;;;;6185594;23;20068;-72
2023/02/13 12:17:59;;;;;;;38.85;24.38;;;9.30;99.90;;;;;;6187333;23;20013;-72
2023/02/13 12:20:27;;;;;;;34.03;22.73;;;9.40;99.90;;;;;;6187344;23;20017;-72
2023/02/13 12:23:05;;;;;;;35.17;23.67;;;9.50;99.90;;;;;;6185502;23;20021;-72
2023/02/13 12:25:38;;;;;;;36.80;22.40;;;9.50;99.90;;;;;;6185359;23;20024;-72
2023/02/13 12:28:13;;;;;;;33.85;23.27;;;9.60;99.90;;;;;;6185475;23;20062;-72
2023/02/13 12:30:42;;;;;;;37.83;23.83;;;9.60;99.90;;;;;;6185365;23;20020;-72
2023/02/13 12:33:24;;;;;;;35.38;23.35;;;9.70;99.90;;;;;;6160548;23;20017;-72
2023/02/13 12:35:50;;;;;;;36.78;23.83;;;9.80;99.90;;;;;;6187644;23;20059;-72
2023/02/13 12:38:16;;;;;;;34.55;22.80;;;9.80;99.90;;;;;;6185346;23;20013;-72
2023/02/13 12:40:56;;;;;;;32.90;22.88;;;9.80;99.90;;;;;;6185196;23;20068;-72
2023/02/13 12:43:35;;;;;;;34.78;23.05;;;10.00;99.90;;;;;;6185413;23;20012;-72
2023/02/13 12:46:20;;;;;;;33.67;22.70;;;10.00;99.90;;;;;;6187112;23;20009;-72
2023/02/13 12:48:49;;;;;;;32.10;20.95;;;10.10;99.90;;;;;;6185248;23;20017;-72
2023/02/13 12:51:17;;;;;;;36.05;23.67;;;10.10;99.90;;;;;;6187082;23;20013;-72
2023/02/13 12:54:13;;;;;;;34.10;23.27;;;10.20;99.90;;;;;;6185574;23;20075;-72
2023/02/13 12:56:45;;;;;;;35.88;23.95;;;10.10;99.90;;;;;;6185123;23;20020;-72
2023/02/13 12:59:29;;;;;;;34.25;24.15;;;10.20;99.90;;;;;;6187809;23;20013;-72
2023/02/13 13:02:24;;;;;;;39.60;25.38;;;10.20;99.90;;;;;;6160312;23;20043;-72
2023/02/13 13:05:04;;;;;;;35.85;25.33;;;10.20;99.90;;;;;;6185127;23;20012;-72
2023/02/13 13:07:39;;;;;;;;;;;10.20;99.90;;;;;;6185299;23;20020;-72
2023/02/13 13:10:21;;;;;;;34.83;24.88;;;10.10;99.90;;;;;;6185075;23;19916;-72
2023/02/13 13:12:54;;;;;;;34.63;24.83;;;10.20;99.90;;;;;;6187567;23;20084;-72
2023/02/13 13:15:19;;;;;;;36.55;25.27;;;10.20;99.90;;;;;;6187080;23;20334;-72
2023/02/13 13:17:48;;;;;;;35.72;25.67;;;10.20;99.90;;;;;;6186905;23;20057;-72
2023/02/13 13:20:41;;;;;;;34.17;25.02;;;10.20;99.90;;;;;;6185084;23;20055;-73
2023/02/13 13:23:25;;;;;;;30.67;23.38;;;10.20;99.90;;;;;;6185040;23;20021;-72
2023/02/13 13:26:04;;;;;;;27.35;22.45;;;10.20;99.90;;;;;;6184856;23;20017;-72
2023/02/13 13:28:36;;;;;;;28.05;21.98;;;10.20;99.90;;;;;;6185192;23;20012;-72
2023/02/13 13:31:03;;;;;;;25.67;20.77;;;10.20;99.90;;;;;;6186343;23;20017;-72
2023/02/13 13:33:29;;;;;;;30.52;22.40;;;10.20;99.90;;;;;;6185265;23;20335;-72
2023/02/13 13:36:32;;;;;;;29.50;21.92;;;10.20;99.90;;;;;;6186611;23;20039;-73
2023/02/13 13:39:42;;;;;;;29.25;22.48;;;10.20;99.90;;;;;;6186293;23;20460;-72
2023/02/13 13:42:23;;;;;;;28.50;22.52;;;10.20;99.90;;;;;;6173030;23;20023;-72
2023/02/13 13:45:13;;;;;;;26.58;21.45;;;10.20;99.90;;;;;;6186769;23;20024;-72